Time;durP1;ratioP1;P1;durP2;ratioP2;P2;SDS_P1;SDS_P2;PMS_P1;PMS_P2;Temp;Humidity;BMP_temperature;BMP_pressure;BME280_temperature;BME280_humidity;BME280_pressure;Samples;Min_cycle;Max_cycle;Signal;HPM_P1;HPM_P2
2021/04/27 04:24:42;;;;;;;20.77;9.82;;;;;;;;;;6152653;23;20024;-67
2021/04/27 04:27:08;;;;;;;24.05;11.27;;;;;;;;;;6155142;23;20059;-67
2021/04/27 04:29:34;;;;;;;20.70;9.65;;;;;;;;;;6153807;23;20009;-65
2021/04/27 04:32:00;;;;;;;23.27;10.15;;;;;;;;;;6153099;23;20005;-66
2021/04/27 04:34:26;;;;;;;20.13;9.95;;;;;;;;;;6151736;23;20013;-69
2021/04/27 04:36:52;;;;;;;20.02;9.38;;;;;;;;;;6151917;23;20006;-69
2021/04/27 04:39:18;;;;;;;20.83;9.30;;;;;;;;;;6153601;23;20008;-67
2021/04/27 04:41:44;;;;;;;28.88;11.80;;;;;;;;;;6153495;23;20005;-69
2021/04/27 04:44:10;;;;;;;28.63;11.57;;;;;;;;;;6151891;23;20002;-68
2021/04/27 04:46:36;;;;;;;28.08;13.00;;;;;;;;;;6153466;23;20005;-70
2021/04/27 04:49:04;;;;;;;24.42;10.50;;;;;;;;;;6154045;23;20016;-70
2021/04/27 04:51:29;;;;;;;21.98;9.88;;;;;;;;;;6151586;23;20037;-69
2021/04/27 04:53:56;;;;;;;29.33;10.73;;;;;;;;;;6153192;23;20005;-69
2021/04/27 04:56:22;;;;;;;23.08;8.75;;;;;;;;;;6153130;23;20006;-72
2021/04/27 04:58:48;;;;;;;25.10;10.20;;;;;;;;;;6151857;23;20016;-66
2021/04/27 05:01:14;;;;;;;20.42;9.60;;;;;;;;;;6153393;23;20081;-66
2021/04/27 05:03:41;;;;;;;16.30;8.93;;;;;;;;;;6153647;23;20029;-69
2021/04/27 05:06:11;;;;;;;18.50;7.95;;;;;;;;;;6154665;23;20755;-71
2021/04/27 05:08:44;;;;;;;17.85;7.35;;;;;;;;;;6154541;23;20014;-71
2021/04/27 05:11:10;;;;;;;18.42;8.02;;;;;;;;;;6153252;23;20009;-70
2021/04/27 05:43:42;;;;;;;9.98;5.60;;;;;;;;;;6146762;23;20029;-70
2021/04/27 05:46:11;;;;;;;7.72;4.82;;;;;;;;;;6153610;23;20055;-69
2021/04/27 05:48:37;;;;;;;10.02;5.18;;;;;;;;;;6154015;23;20084;-70
2021/04/27 05:51:03;;;;;;;9.63;5.88;;;;;;;;;;6152752;23;20753;-71
2021/04/27 05:53:29;;;;;;;8.93;6.15;;;;;;;;;;6154079;23;20033;-70
2021/04/27 05:55:58;;;;;;;10.52;6.00;;;;;;;;;;6151962;23;20012;-70
2021/04/27 05:58:24;;;;;;;12.45;6.15;;;;;;;;;;6152527;23;20014;-71
2021/04/27 06:00:50;;;;;;;9.38;5.65;;;;;;;;;;6153009;23;20012;-71
2021/04/27 06:03:16;;;;;;;9.05;5.53;;;;;;;;;;6154473;23;20029;-70
2021/04/27 06:05:42;;;;;;;12.10;6.85;;;;;;;;;;6154317;23;20100;-69
2021/04/27 06:08:08;;;;;;;12.98;6.63;;;;;;;;;;6155460;23;20427;-70
2021/04/27 06:10:34;;;;;;;7.47;5.13;;;;;;;;;;6154692;23;20044;-69
2021/04/27 06:13:00;;;;;;;9.55;5.88;;;;;;;;;;6154211;23;20359;-69
2021/04/27 06:15:26;;;;;;;10.80;5.85;;;;;;;;;;6154393;23;20006;-70
2021/04/27 06:17:52;;;;;;;11.35;7.32;;;;;;;;;;6155797;23;20025;-69
2021/04/27 06:20:18;;;;;;;9.48;5.60;;;;;;;;;;6155542;23;20334;-69
2021/04/27 06:22:44;;;;;;;9.05;5.03;;;;;;;;;;6155569;23;20025;-69
2021/04/27 06:25:11;;;;;;;9.38;5.10;;;;;;;;;;6156992;23;20407;-69
2021/04/27 06:27:37;;;;;;;10.50;5.20;;;;;;;;;;6156073;23;20039;-69
2021/04/27 06:30:07;;;;;;;7.68;4.43;;;;;;;;;;6157589;23;20386;-70
2021/04/27 06:32:33;;;;;;;8.68;5.07;;;;;;;;;;6154436;23;20009;-70
2021/04/27 06:35:00;;;;;;;7.97;4.60;;;;;;;;;;6155116;23;20017;-69
2021/04/27 06:37:26;;;;;;;9.77;5.95;;;;;;;;;;6155073;23;20040;-70
2021/04/27 06:39:55;;;;;;;8.77;5.15;;;;;;;;;;6157438;23;20006;-73
2021/04/27 06:42:21;;;;;;;7.57;4.70;;;;;;;;;;6157353;23;20013;-70
2021/04/27 06:45:16;;;;;;;8.15;4.78;;;;;;;;;;6155246;23;20017;-72
2021/04/27 06:47:43;;;;;;;12.82;5.00;;;;;;;;;;6150166;23;20013;-69
2021/04/27 06:50:12;;;;;;;10.63;5.97;;;;;;;;;;6157543;23;20013;-71
2021/04/27 06:52:41;;;;;;;9.18;4.97;;;;;;;;;;6157241;23;20380;-70
2021/04/27 06:55:08;;;;;;;9.02;5.60;;;;;;;;;;6157277;23;20009;-72
2021/04/27 06:57:34;;;;;;;9.25;5.53;;;;;;;;;;6155488;23;20012;-71
2021/04/27 06:59:59;;;;;;;9.70;5.22;;;;;;;;;;6156944;23;20394;-70
2021/04/27 07:02:31;;;;;;;8.63;5.15;;;;;;;;;;6155454;23;20009;-69
2021/04/27 07:04:57;;;;;;;9.30;5.78;;;;;;;;;;6157206;23;20006;-72
2021/04/27 07:07:26;;;;;;;8.23;4.68;;;;;;;;;;6157193;23;20006;-72
2021/04/27 07:09:52;;;;;;;14.55;7.07;;;;;;;;;;6156819;23;20010;-73
2021/04/27 07:12:23;;;;;;;18.77;9.52;;;;;;;;;;6155170;23;20040;-71
2021/04/27 07:14:49;;;;;;;12.88;7.25;;;;;;;;;;6156866;23;20371;-69
2021/04/27 07:17:15;;;;;;;11.57;6.63;;;;;;;;;;6157270;23;20032;-69
2021/04/27 07:19:41;;;;;;;12.13;7.68;;;;;;;;;;6156753;23;20028;-69
2021/04/27 07:22:07;;;;;;;7.30;4.40;;;;;;;;;;6155522;23;20021;-70
2021/04/27 07:24:33;;;;;;;15.35;8.73;;;;;;;;;;6156753;23;20005;-70
2021/04/27 07:26:59;;;;;;;13.80;7.43;;;;;;;;;;6157125;23;20454;-71
2021/04/27 07:29:25;;;;;;;9.70;5.93;;;;;;;;;;6155341;23;20428;-71
2021/04/27 07:31:51;;;;;;;11.23;6.72;;;;;;;;;;6156670;23;20020;-69
2021/04/27 07:34:17;;;;;;;12.48;6.80;;;;;;;;;;6157077;23;20080;-70
2021/04/27 07:36:43;;;;;;;8.52;4.82;;;;;;;;;;6156916;23;20029;-70
2021/04/27 07:39:10;;;;;;;13.15;6.13;;;;;;;;;;6156790;23;20081;-70
2021/04/27 07:41:36;;;;;;;10.07;6.28;;;;;;;;;;6156885;23;20006;-70
2021/04/27 07:44:03;;;;;;;8.73;5.68;;;;;;;;;;6156548;23;20021;-70
2021/04/27 07:46:29;;;;;;;7.65;4.90;;;;;;;;;;6156764;23;20020;-71
2021/04/27 07:48:55;;;;;;;8.20;5.40;;;;;;;;;;6153886;23;20044;-70
2021/04/27 07:51:21;;;;;;;7.88;4.80;;;;;;;;;;6156284;23;20037;-72
2021/04/27 07:53:47;;;;;;;9.65;4.05;;;;;;;;;;6156567;23;20334;-71
2021/04/27 07:56:13;;;;;;;7.85;4.00;;;;;;;;;;6156215;23;20001;-71
2021/04/27 07:58:39;;;;;;;7.80;4.45;;;;;;;;;;6156419;23;20009;-70
2021/04/27 08:01:05;;;;;;;9.18;5.32;;;;;;;;;;6157070;23;20009;-68
2021/04/27 08:03:31;;;;;;;7.07;4.60;;;;;;;;;;6155312;23;20064;-70
2021/04/27 08:05:57;;;;;;;4.95;3.10;;;;;;;;;;6156403;23;20088;-69
2021/04/27 08:08:24;;;;;;;7.78;3.72;;;;;;;;;;6156369;23;20006;-68
2021/04/27 08:10:50;;;;;;;5.68;3.85;;;;;;;;;;6156274;23;20013;-70
2021/04/27 08:13:16;;;;;;;7.93;3.22;;;;;;;;;;6156375;23;20029;-70
2021/04/27 08:15:42;;;;;;;4.63;2.80;;;;;;;;;;6155714;23;20016;-70
2021/04/27 08:18:08;;;;;;;9.77;6.30;;;;;;;;;;6156318;23;20044;-70
2021/04/27 08:20:35;;;;;;;6.78;3.67;;;;;;;;;;6156546;23;20005;-70
2021/04/27 08:23:01;;;;;;;5.40;3.65;;;;;;;;;;6156164;23;20005;-70
2021/04/27 08:25:28;;;;;;;6.95;3.53;;;;;;;;;;6156281;23;20415;-69
2021/04/27 08:27:54;;;;;;;8.60;3.75;;;;;;;;;;6156176;23;20002;-68
2021/04/27 08:30:21;;;;;;;5.85;3.50;;;;;;;;;;6154411;23;20017;-69
2021/04/27 08:32:48;;;;;;;7.65;3.58;;;;;;;;;;6156540;23;20044;-70
2021/04/27 08:35:14;;;;;;;5.47;3.80;;;;;;;;;;6155953;23;20459;-68
2021/04/27 08:37:40;;;;;;;5.72;3.47;;;;;;;;;;6156272;23;20434;-71
2021/04/27 08:40:07;;;;;;;4.60;3.30;;;;;;;;;;6156081;23;20061;-70
2021/04/27 08:42:34;;;;;;;5.97;3.40;;;;;;;;;;6156277;23;20077;-70
2021/04/27 08:45:00;;;;;;;6.72;3.83;;;;;;;;;;6155865;23;20017;-71
2021/04/27 08:47:28;;;;;;;4.40;3.40;;;;;;;;;;6155861;23;20442;-71
2021/04/27 08:49:54;;;;;;;6.32;4.35;;;;;;;;;;6155981;23;20005;-71
2021/04/27 08:52:20;;;;;;;13.60;8.30;;;;;;;;;;6155866;23;20517;-71
2021/04/27 08:54:46;;;;;;;10.80;9.57;;;;;;;;;;6156449;23;20097;-71
2021/04/27 08:57:15;;;;;;;6.93;3.83;;;;;;;;;;6156052;23;20001;-71
2021/04/27 08:59:44;;;;;;;9.80;6.00;;;;;;;;;;6156205;23;20001;-68
2021/04/27 09:02:11;;;;;;;6.13;4.28;;;;;;;;;;6154622;23;20006;-70
2021/04/27 09:04:38;;;;;;;7.63;3.60;;;;;;;;;;6156210;23;20323;-71
2021/04/27 09:07:06;;;;;;;6.55;3.80;;;;;;;;;;6155948;23;20009;-73
2021/04/27 09:09:36;;;;;;;6.97;4.13;;;;;;;;;;6154855;23;20392;-72
2021/04/27 09:12:02;;;;;;;7.40;4.20;;;;;;;;;;6154177;23;20013;-71
2021/04/27 09:14:28;;;;;;;7.25;3.45;;;;;;;;;;6154710;23;20006;-73
2021/04/27 09:16:55;;;;;;;7.90;4.43;;;;;;;;;;6152507;23;20010;-72
2021/04/27 09:19:36;;;;;;;6.28;3.83;;;;;;;;;;6155440;23;20066;-72
2021/04/27 09:22:02;;;;;;;;;;;;;;;;;;6155703;23;20308;-72
2021/04/27 09:24:28;;;;;;;4.78;3.38;;;;;;;;;;6154926;23;19978;-71
2021/04/27 09:26:58;;;;;;;6.00;4.13;;;;;;;;;;6153444;23;20013;-73
2021/04/27 09:29:31;;;;;;;7.72;4.05;;;;;;;;;;6155238;23;20013;-71
2021/04/27 09:32:01;;;;;;;6.63;4.07;;;;;;;;;;6155626;23;20024;-73
2021/04/27 09:34:31;;;;;;;6.03;4.00;;;;;;;;;;6156502;23;20041;-72
2021/04/27 09:37:04;;;;;;;5.82;4.05;;;;;;;;;;6155811;23;20010;-73
2021/04/27 09:39:33;;;;;;;6.07;3.85;;;;;;;;;;6155706;23;20076;-74
2021/04/27 09:42:01;;;;;;;5.40;3.72;;;;;;;;;;6155936;23;20307;-74
2021/04/27 09:44:53;;;;;;;4.72;3.65;;;;;;;;;;6155398;23;20145;-71
2021/04/27 09:47:33;;;;;;;5.55;2.83;;;;;;;;;;6153300;23;20017;-71
2021/04/27 09:50:08;;;;;;;7.07;3.05;;;;;;;;;;6155759;23;20016;-71
2021/04/27 09:52:41;;;;;;;4.43;3.63;;;;;;;;;;6154409;23;20009;-72
2021/04/27 09:55:12;;;;;;;5.43;3.22;;;;;;;;;;6156040;23;20060;-72
2021/04/27 09:57:46;;;;;;;5.07;3.38;;;;;;;;;;6156126;23;20318;-71
2021/04/27 10:00:39;;;;;;;5.43;3.42;;;;;;;;;;6157618;23;20025;-70
2021/04/27 10:03:09;;;;;;;3.97;3.00;;;;;;;;;;6155124;23;20009;-70
2021/04/27 10:05:42;;;;;;;6.07;3.43;;;;;;;;;;6157914;23;20009;-73
2021/04/27 10:08:11;;;;;;;6.70;3.42;;;;;;;;;;6157615;23;20237;-72
2021/04/27 10:10:38;;;;;;;4.82;3.58;;;;;;;;;;6157353;23;20016;-69
2021/04/27 10:13:05;;;;;;;4.43;3.65;;;;;;;;;;6155876;23;20445;-73
2021/04/27 10:15:31;;;;;;;7.05;3.30;;;;;;;;;;6157578;23;20001;-72
2021/04/27 10:17:59;;;;;;;5.50;3.33;;;;;;;;;;6157009;23;20304;-73
2021/04/27 10:20:26;;;;;;;5.20;3.58;;;;;;;;;;6156944;23;20072;-73
2021/04/27 10:22:52;;;;;;;4.55;3.35;;;;;;;;;;6151072;23;20326;-70
2021/04/27 10:25:22;;;;;;;4.03;3.00;;;;;;;;;;6155852;23;20017;-70
2021/04/27 10:27:54;;;;;;;6.38;3.80;;;;;;;;;;6157039;23;20012;-71
2021/04/27 10:30:23;;;;;;;5.88;3.47;;;;;;;;;;6156293;23;20084;-71
2021/04/27 10:33:01;;;;;;;5.28;3.40;;;;;;;;;;6157237;23;20465;-71
2021/04/27 10:35:28;;;;;;;6.90;3.00;;;;;;;;;;6157499;23;20001;-71
2021/04/27 10:37:57;;;;;;;6.80;3.85;;;;;;;;;;6155443;23;20327;-72
2021/04/27 10:40:45;;;;;;;8.45;3.78;;;;;;;;;;6156789;23;20006;-69
2021/04/27 10:43:26;;;;;;;5.60;3.53;;;;;;;;;;6150095;23;20041;-68
2021/04/27 10:45:52;;;;;;;7.28;3.80;;;;;;;;;;6154901;23;20446;-72
2021/04/27 10:48:28;;;;;;;6.63;3.95;;;;;;;;;;6156413;23;20010;-72
2021/04/27 10:50:54;;;;;;;5.78;3.53;;;;;;;;;;6154931;23;20014;-72
2021/04/27 10:53:34;;;;;;;4.53;3.20;;;;;;;;;;6157148;23;20007;-72
2021/04/27 10:56:01;;;;;;;8.18;4.10;;;;;;;;;;6157243;23;20013;-71
2021/04/27 10:58:46;;;;;;;90.78;6.53;;;;;;;;;;6156986;23;20077;-75
2021/04/27 11:01:17;;;;;;;23.45;5.43;;;;;;;;;;6156859;23;20013;-71
2021/04/27 11:03:50;;;;;;;25.20;5.20;;;;;;;;;;6156644;23;20005;-75
2021/04/27 11:06:16;;;;;;;17.77;4.90;;;;;;;;;;6157134;23;20675;-73
2021/04/27 11:08:43;;;;;;;25.77;6.53;;;;;;;;;;6156655;23;20005;-72
2021/04/27 11:11:16;;;;;;;8.98;4.18;;;;;;;;;;6156695;23;20014;-71
2021/04/27 11:13:44;;;;;;;58.38;6.43;;;;;;;;;;6157055;23;20015;-76
2021/04/27 11:16:23;;;;;;;29.25;5.60;;;;;;;;;;6156863;23;20061;-73
2021/04/27 11:18:50;;;;;;;248.50;14.13;;;;;;;;;;6157210;23;20017;-73
2021/04/27 11:21:16;;;;;;;11.55;4.05;;;;;;;;;;6156839;23;20001;-71
2021/04/27 11:23:43;;;;;;;10.95;4.10;;;;;;;;;;6156937;23;20012;-72
2021/04/27 11:26:28;;;;;;;8.63;3.53;;;;;;;;;;6156693;23;20016;-71
2021/04/27 11:28:55;;;;;;;5.00;3.50;;;;;;;;;;6155560;23;20009;-72
2021/04/27 11:31:20;;;;;;;15.25;3.97;;;;;;;;;;6156931;23;20076;-70
2021/04/27 11:34:00;;;;;;;13.38;4.38;;;;;;;;;;6156779;23;20343;-67
2021/04/27 11:36:32;;;;;;;12.20;5.07;;;;;;;;;;6155747;23;20006;-72
2021/04/27 11:38:58;;;;;;;4.47;3.47;;;;;;;;;;6156726;23;20548;-73
2021/04/27 11:41:24;;;;;;;21.83;4.32;;;;;;;;;;6156521;23;20033;-75
2021/04/27 11:44:05;;;;;;;7.15;3.70;;;;;;;;;;6156507;23;20014;-74
2021/04/27 11:46:51;;;;;;;62.15;6.25;;;;;;;;;;6156600;23;20024;-73
2021/04/27 11:49:17;;;;;;;6.07;3.40;;;;;;;;;;6156701;23;20009;-72
2021/04/27 11:51:44;;;;;;;8.43;4.43;;;;;;;;;;6154355;23;20018;-72
2021/04/27 11:54:11;;;;;;;5.03;3.35;;;;;;;;;;6156591;23;20068;-69
2021/04/27 11:56:49;;;;;;;4.15;3.17;;;;;;;;;;6156969;23;20327;-71
2021/04/27 11:59:19;;;;;;;7.35;3.92;;;;;;;;;;6156566;23;20009;-71
2021/04/27 12:01:45;;;;;;;5.25;3.60;;;;;;;;;;6156498;23;20060;-71
2021/04/27 12:04:11;;;;;;;3.95;3.38;;;;;;;;;;6157184;23;20180;-72
2021/04/27 12:06:37;;;;;;;5.57;3.35;;;;;;;;;;6156485;23;20060;-71
2021/04/27 12:09:05;;;;;;;6.38;3.58;;;;;;;;;;6156338;23;20005;-71
2021/04/27 12:11:35;;;;;;;6.07;3.75;;;;;;;;;;6153955;23;20021;-72
2021/04/27 12:14:12;;;;;;;5.50;3.53;;;;;;;;;;6156394;23;20006;-71
2021/04/27 12:16:41;;;;;;;6.28;3.67;;;;;;;;;;6154086;23;20478;-72
2021/04/27 12:19:19;;;;;;;38.00;17.27;;;;;;;;;;6153082;23;20016;-69
2021/04/27 12:21:51;;;;;;;6.68;3.88;;;;;;;;;;6152983;23;20012;-69
2021/04/27 12:24:23;;;;;;;10.82;7.68;;;;;;;;;;6153502;23;20012;-69
2021/04/27 12:26:54;;;;;;;4.57;3.20;;;;;;;;;;6153448;23;20045;-69
2021/04/27 12:29:25;;;;;;;5.18;3.45;;;;;;;;;;6153135;23;20005;-69
2021/04/27 12:31:51;;;;;;;;;;;;;;;;;;6154935;23;20320;-72
2021/04/27 13:01:57;;;;;;;7.28;3.58;;;;;;;;;;6150761;23;20036;-71
2021/04/27 13:04:23;;;;;;;5.78;3.85;;;;;;;;;;6155126;23;20056;-71
2021/04/27 13:06:48;;;;;;;5.13;3.50;;;;;;;;;;6155871;23;20013;-71
2021/04/27 13:09:16;;;;;;;6.70;3.63;;;;;;;;;;6155619;23;20033;-71
2021/04/27 13:11:58;;;;;;;6.00;3.65;;;;;;;;;;6155395;23;20088;-71
2021/04/27 13:14:36;;;;;;;4.88;3.40;;;;;;;;;;6153436;23;20056;-70
2021/04/27 13:17:05;;;;;;;5.63;3.45;;;;;;;;;;6151169;23;20032;-67
2021/04/27 13:19:44;;;;;;;4.40;3.75;;;;;;;;;;6153597;23;20009;-68
2021/04/27 13:22:12;;;;;;;6.03;3.70;;;;;;;;;;6154079;23;20386;-69
2021/04/27 13:24:48;;;;;;;3.70;3.17;;;;;;;;;;6154625;23;20006;-69
2021/04/27 13:27:22;;;;;;;9.38;4.40;;;;;;;;;;6154471;23;20040;-69
2021/04/27 13:29:48;;;;;;;6.18;3.15;;;;;;;;;;6154952;23;20011;-68
2021/04/27 13:32:20;;;;;;;4.32;3.70;;;;;;;;;;6155170;23;20557;-67
2021/04/27 13:34:46;;;;;;;6.07;3.58;;;;;;;;;;6155309;23;20002;-67
2021/04/27 13:37:12;;;;;;;5.60;3.53;;;;;;;;;;6154353;23;20339;-67
2021/04/27 13:39:38;;;;;;;4.68;3.55;;;;;;;;;;6154442;23;20009;-70
2021/04/27 13:42:04;;;;;;;4.75;3.42;;;;;;;;;;6154135;23;20001;-67
2021/04/27 13:44:30;;;;;;;4.13;3.47;;;;;;;;;;6154122;23;20101;-70
2021/04/27 13:46:56;;;;;;;4.45;3.03;;;;;;;;;;6154057;23;20008;-68
2021/04/27 13:49:23;;;;;;;6.40;3.28;;;;;;;;;;6154423;23;20074;-69
2021/04/27 13:51:48;;;;;;;5.00;3.33;;;;;;;;;;6155735;23;20497;-69
2021/04/27 13:54:14;;;;;;;5.72;3.33;;;;;;;;;;6154298;23;20009;-71
2021/04/27 13:56:40;;;;;;;6.95;3.97;;;;;;;;;;6155768;23;20014;-72
2021/04/27 13:59:06;;;;;;;6.55;4.00;;;;;;;;;;6155550;23;20001;-72
2021/04/27 14:01:34;;;;;;;4.95;3.70;;;;;;;;;;6154800;23;20018;-72
2021/04/27 14:04:00;;;;;;;8.23;3.83;;;;;;;;;;6155743;23;20029;-71
2021/04/27 14:06:27;;;;;;;7.15;3.85;;;;;;;;;;6155793;23;20012;-72
2021/04/27 14:08:53;;;;;;;7.20;4.18;;;;;;;;;;6155762;23;20024;-72
2021/04/27 14:11:19;;;;;;;7.20;3.70;;;;;;;;;;6154532;23;20339;-71
2021/04/27 14:13:45;;;;;;;8.05;4.05;;;;;;;;;;6155471;23;20057;-71
2021/04/27 14:16:11;;;;;;;7.03;3.90;;;;;;;;;;6155652;23;20415;-75
2021/04/27 14:18:37;;;;;;;7.07;4.00;;;;;;;;;;6155744;23;20005;-75
2021/04/27 14:21:03;;;;;;;6.75;3.92;;;;;;;;;;6156148;23;20013;-72
2021/04/27 14:23:29;;;;;;;5.53;3.30;;;;;;;;;;6155630;23;20381;-71
2021/04/27 14:25:55;;;;;;;4.95;3.80;;;;;;;;;;6155812;23;20052;-71
2021/04/27 14:28:21;;;;;;;6.18;3.25;;;;;;;;;;6155828;23;20033;-68
2021/04/27 14:30:47;;;;;;;5.25;3.80;;;;;;;;;;6155525;23;20013;-71
2021/04/27 14:33:13;;;;;;;7.00;4.30;;;;;;;;;;6154947;23;20423;-72
2021/04/27 14:35:41;;;;;;;4.45;3.25;;;;;;;;;;6155621;23;20009;-72
2021/04/27 14:38:07;;;;;;;5.15;3.80;;;;;;;;;;6155563;23;20434;-70
2021/04/27 14:40:34;;;;;;;3.85;2.80;;;;;;;;;;6154001;23;20064;-71
2021/04/27 14:43:00;;;;;;;3.95;2.78;;;;;;;;;;6155513;23;20006;-71
2021/04/27 14:45:27;;;;;;;6.75;3.83;;;;;;;;;;6156779;23;20001;-70
2021/04/27 14:47:53;;;;;;;6.30;3.30;;;;;;;;;;6157374;23;20005;-70
2021/04/27 14:50:20;;;;;;;6.47;3.97;;;;;;;;;;6157224;23;20005;-70
2021/04/27 14:52:47;;;;;;;9.30;3.58;;;;;;;;;;6154780;23;20005;-72
2021/04/27 14:55:14;;;;;;;7.07;3.20;;;;;;;;;;6155881;23;20422;-71
2021/04/27 14:57:40;;;;;;;6.80;4.40;;;;;;;;;;6155890;23;20001;-73
2021/04/27 15:00:08;;;;;;;6.90;3.72;;;;;;;;;;6155942;23;20001;-71
2021/04/27 15:02:37;;;;;;;6.78;5.25;;;;;;;;;;6155517;23;20342;-72
2021/04/27 15:05:04;;;;;;;6.97;3.97;;;;;;;;;;6156130;23;20076;-73
2021/04/27 15:07:30;;;;;;;6.38;3.70;;;;;;;;;;6155960;23;20012;-71
2021/04/27 15:09:55;;;;;;;8.88;4.60;;;;;;;;;;6155645;23;20077;-71
2021/04/27 15:12:21;;;;;;;22.05;13.02;;;;;;;;;;6155698;23;20005;-73
2021/04/27 15:14:47;;;;;;;5.28;3.58;;;;;;;;;;6155890;23;20006;-69
2021/04/27 15:17:13;;;;;;;6.32;3.55;;;;;;;;;;6155800;23;20008;-69
2021/04/27 15:19:39;;;;;;;4.55;3.10;;;;;;;;;;6155322;23;20012;-69
2021/04/27 15:22:06;;;;;;;7.13;3.20;;;;;;;;;;6155453;23;20002;-69
2021/04/27 15:24:32;;;;;;;6.65;3.22;;;;;;;;;;6155526;23;20021;-70
2021/04/27 15:27:01;;;;;;;4.65;2.90;;;;;;;;;;6155614;23;20477;-69
2021/04/27 15:29:28;;;;;;;6.63;3.25;;;;;;;;;;6155607;23;20006;-69
2021/04/27 15:31:54;;;;;;;5.07;2.88;;;;;;;;;;6154826;23;20009;-69
2021/04/27 15:34:24;;;;;;;4.28;3.00;;;;;;;;;;6155520;23;20001;-69
2021/04/27 15:36:53;;;;;;;5.77;3.33;;;;;;;;;;6155587;23;20334;-69
2021/04/27 15:39:20;;;;;;;4.45;2.90;;;;;;;;;;6155534;23;20001;-69
2021/04/27 15:41:46;;;;;;;3.92;2.55;;;;;;;;;;6155383;23;20001;-69
2021/04/27 15:44:12;;;;;;;3.88;2.70;;;;;;;;;;6155424;23;20052;-70
2021/04/27 15:46:40;;;;;;;5.22;2.45;;;;;;;;;;6155777;23;20010;-69
2021/04/27 15:49:06;;;;;;;3.88;2.78;;;;;;;;;;6155370;23;20002;-69
2021/04/27 15:51:32;;;;;;;4.88;2.47;;;;;;;;;;6155589;23;20009;-68
2021/04/27 15:53:59;;;;;;;4.07;2.90;;;;;;;;;;6156786;23;20366;-70
2021/04/27 15:56:25;;;;;;;9.55;3.50;;;;;;;;;;6156608;23;20029;-70
2021/04/27 15:58:51;;;;;;;5.97;3.08;;;;;;;;;;6156667;23;20383;-70
2021/04/27 16:01:17;;;;;;;4.65;2.70;;;;;;;;;;6154878;23;20037;-72
2021/04/27 16:03:43;;;;;;;5.05;2.90;;;;;;;;;;6155221;23;20005;-70
2021/04/27 16:06:11;;;;;;;4.45;2.80;;;;;;;;;;6155356;23;20006;-70
2021/04/27 16:08:39;;;;;;;4.72;2.90;;;;;;;;;;6154595;23;20013;-74
2021/04/27 16:11:09;;;;;;;24.65;21.23;;;;;;;;;;6155452;23;20016;-71
2021/04/27 16:13:41;;;;;;;8.55;6.57;;;;;;;;;;6155326;23;20013;-66
2021/04/27 16:16:07;;;;;;;6.32;3.60;;;;;;;;;;6155127;23;20001;-67
2021/04/27 16:18:33;;;;;;;8.27;3.00;;;;;;;;;;6153489;23;20033;-66
2021/04/27 16:20:59;;;;;;;7.97;3.30;;;;;;;;;;6153175;23;20020;-68
2021/04/27 16:23:25;;;;;;;7.20;3.55;;;;;;;;;;6155261;23;20431;-67
2021/04/27 16:25:51;;;;;;;6.57;3.25;;;;;;;;;;6156086;23;20006;-69
2021/04/27 16:28:17;;;;;;;7.68;2.78;;;;;;;;;;6156213;23;20076;-70
2021/04/27 16:30:43;;;;;;;5.25;3.17;;;;;;;;;;6155586;23;20021;-70
2021/04/27 16:33:10;;;;;;;3.38;2.75;;;;;;;;;;6156378;23;20077;-71
2021/04/27 16:35:36;;;;;;;7.07;3.72;;;;;;;;;;6156410;23;20084;-70
2021/04/27 16:38:02;;;;;;;5.20;3.40;;;;;;;;;;6156259;23;20068;-68
2021/04/27 16:40:28;;;;;;;7.18;3.80;;;;;;;;;;6156224;23;20068;-70
2021/04/27 16:42:55;;;;;;;5.10;2.70;;;;;;;;;;6156324;23;20005;-70
2021/04/27 16:45:22;;;;;;;5.35;3.10;;;;;;;;;;6156221;23;20133;-70
2021/04/27 16:47:48;;;;;;;5.65;3.25;;;;;;;;;;6156291;23;20009;-70
2021/04/27 16:50:15;;;;;;;9.18;3.10;;;;;;;;;;6156053;23;20486;-70
2021/04/27 16:52:41;;;;;;;4.28;2.78;;;;;;;;;;6156267;23;20033;-68
2021/04/27 16:55:07;;;;;;;3.75;2.60;;;;;;;;;;6156203;23;20006;-70
2021/04/27 16:57:33;;;;;;;6.60;3.45;;;;;;;;;;6156199;23;20078;-70
2021/04/27 16:59:59;;;;;;;8.55;4.15;;;;;;;;;;6156135;23;20040;-69
2021/04/27 17:02:25;;;;;;;8.27;3.50;;;;;;;;;;6156065;23;20010;-69
2021/04/27 17:04:51;;;;;;;6.15;3.47;;;;;;;;;;6156067;23;20009;-70
2021/04/27 17:07:17;;;;;;;12.07;5.45;;;;;;;;;;6155823;23;20067;-71
2021/04/27 17:09:43;;;;;;;9.43;4.35;;;;;;;;;;6156121;23;20005;-70
2021/04/27 17:12:10;;;;;;;9.30;6.47;;;;;;;;;;6156230;23;20018;-70
2021/04/27 17:14:36;;;;;;;13.20;8.80;;;;;;;;;;6156044;23;20008;-68
2021/04/27 17:17:02;;;;;;;19.95;11.40;;;;;;;;;;6156020;23;20006;-71
2021/04/27 17:19:28;;;;;;;16.65;8.90;;;;;;;;;;6156460;23;20005;-70
2021/04/27 17:21:54;;;;;;;17.48;8.40;;;;;;;;;;6155993;23;20001;-71
2021/04/27 17:24:20;;;;;;;8.68;5.35;;;;;;;;;;6156356;23;20438;-69
2021/04/27 17:26:46;;;;;;;13.10;6.85;;;;;;;;;;6156006;23;20008;-68
2021/04/27 17:29:12;;;;;;;14.07;7.30;;;;;;;;;;6156365;23;20104;-69
2021/04/27 17:31:38;;;;;;;12.48;7.85;;;;;;;;;;6155772;23;20064;-70
2021/04/27 17:34:04;;;;;;;17.58;9.68;;;;;;;;;;6155939;23;20415;-70
2021/04/27 17:36:30;;;;;;;18.48;10.38;;;;;;;;;;6155860;23;20087;-69
2021/04/27 17:38:57;;;;;;;15.02;7.82;;;;;;;;;;6155888;23;20005;-70
2021/04/27 17:41:23;;;;;;;14.85;7.32;;;;;;;;;;6154277;23;20435;-68
2021/04/27 17:43:49;;;;;;;13.40;6.68;;;;;;;;;;6155829;23;20005;-68
2021/04/27 17:46:15;;;;;;;10.52;5.85;;;;;;;;;;6155792;23;20076;-69
2021/04/27 17:48:41;;;;;;;16.95;8.02;;;;;;;;;;6155810;23;20040;-71
2021/04/27 17:51:07;;;;;;;10.45;5.47;;;;;;;;;;6154198;23;20064;-70
2021/04/27 17:53:33;;;;;;;8.93;5.47;;;;;;;;;;6155935;23;20029;-69
2021/04/27 17:56:00;;;;;;;8.95;5.15;;;;;;;;;;6155790;23;20012;-68
2021/04/27 17:58:26;;;;;;;10.38;5.30;;;;;;;;;;6155756;23;20012;-68
2021/04/27 18:00:52;;;;;;;13.15;6.78;;;;;;;;;;6155517;23;20072;-69
2021/04/27 18:03:18;;;;;;;19.55;8.52;;;;;;;;;;6154098;23;20018;-70
2021/04/27 18:05:44;;;;;;;15.85;9.20;;;;;;;;;;6156112;23;20010;-70
2021/04/27 18:08:10;;;;;;;20.77;9.40;;;;;;;;;;6155826;23;20024;-70
2021/04/27 18:10:36;;;;;;;22.48;8.32;;;;;;;;;;6153812;23;20013;-70
2021/04/27 18:13:02;;;;;;;17.42;8.25;;;;;;;;;;6152996;23;20008;-71
2021/04/27 18:15:28;;;;;;;16.05;7.88;;;;;;;;;;6155069;23;20002;-69
2021/04/27 18:17:55;;;;;;;25.38;9.25;;;;;;;;;;6155577;23;20534;-70
2021/04/27 18:20:21;;;;;;;24.52;10.20;;;;;;;;;;6156666;23;19997;-70
2021/04/27 18:22:48;;;;;;;28.42;12.85;;;;;;;;;;6157425;23;20474;-70
2021/04/27 18:25:15;;;;;;;27.48;13.70;;;;;;;;;;6157498;23;20002;-72
2021/04/27 18:27:41;;;;;;;27.40;12.55;;;;;;;;;;6157481;23;20020;-70
2021/04/27 18:30:08;;;;;;;32.08;14.88;;;;;;;;;;6156694;23;20006;-71
2021/04/27 18:32:35;;;;;;;32.88;14.43;;;;;;;;;;6157488;23;20001;-72
2021/04/27 18:35:01;;;;;;;38.13;16.13;;;;;;;;;;6157392;23;20005;-69
2021/04/27 18:37:27;;;;;;;31.60;15.60;;;;;;;;;;6157819;23;20465;-71
2021/04/27 18:39:53;;;;;;;32.10;14.73;;;;;;;;;;6157329;23;20005;-69
2021/04/27 18:42:19;;;;;;;42.30;17.67;;;;;;;;;;6157404;23;19998;-72
2021/04/27 18:44:45;;;;;;;35.40;15.30;;;;;;;;;;6157348;23;20059;-67
2021/04/27 18:47:15;;;;;;;33.72;14.60;;;;;;;;;;6157302;23;20002;-70
2021/04/27 18:49:41;;;;;;;30.60;15.02;;;;;;;;;;6157338;23;20005;-68
2021/04/27 18:52:08;;;;;;;31.00;14.52;;;;;;;;;;6156602;23;20084;-69
2021/04/27 18:54:34;;;;;;;43.22;20.13;;;;;;;;;;6157555;23;20036;-69
2021/04/27 18:57:00;;;;;;;57.65;24.25;;;;;;;;;;6156454;23;20006;-72
2021/04/27 18:59:26;;;;;;;38.03;18.25;;;;;;;;;;6157167;23;20001;-69
2021/04/27 19:01:52;;;;;;;41.90;19.88;;;;;;;;;;6156981;23;20466;-71
2021/04/27 19:04:19;;;;;;;28.83;14.50;;;;;;;;;;6156510;23;20148;-72
2021/04/27 19:06:45;;;;;;;46.28;19.38;;;;;;;;;;6156787;23;20351;-69
2021/04/27 19:09:11;;;;;;;55.05;21.58;;;;;;;;;;6156354;23;20016;-71
2021/04/27 19:11:38;;;;;;;33.60;17.25;;;;;;;;;;6156333;23;20088;-70
2021/04/27 19:14:09;;;;;;;49.75;21.55;;;;;;;;;;6156023;23;20005;-73
2021/04/27 19:16:35;;;;;;;36.75;16.73;;;;;;;;;;6154502;23;20052;-71
2021/04/27 19:19:05;;;;;;;42.55;20.33;;;;;;;;;;6156134;23;20002;-70
2021/04/27 19:21:34;;;;;;;41.43;17.30;;;;;;;;;;6156029;23;20040;-74
2021/04/27 19:24:01;;;;;;;65.32;26.52;;;;;;;;;;6154694;23;20009;-69
2021/04/27 19:26:27;;;;;;;41.15;18.13;;;;;;;;;;6155141;23;20388;-70
2021/04/27 19:29:00;;;;;;;46.47;20.02;;;;;;;;;;6154710;23;20435;-72
2021/04/27 19:31:30;;;;;;;72.03;28.10;;;;;;;;;;6155579;23;20350;-70
2021/04/27 19:33:56;;;;;;;50.63;21.27;;;;;;;;;;6154743;23;20419;-68
2021/04/27 19:36:22;;;;;;;57.38;23.27;;;;;;;;;;6156009;23;20009;-69
2021/04/27 19:38:51;;;;;;;57.58;23.70;;;;;;;;;;6156261;23;20012;-69
2021/04/27 19:41:17;;;;;;;36.42;16.50;;;;;;;;;;6154448;23;20013;-69
2021/04/27 19:43:43;;;;;;;38.25;17.27;;;;;;;;;;6156080;23;19997;-69
2021/04/27 19:46:10;;;;;;;43.67;19.70;;;;;;;;;;6156010;23;20002;-69
2021/04/27 19:48:36;;;;;;;39.50;16.92;;;;;;;;;;6154451;23;20010;-69
2021/04/27 19:51:03;;;;;;;54.30;23.60;;;;;;;;;;6156218;23;20453;-69
2021/04/27 19:53:30;;;;;;;56.63;23.00;;;;;;;;;;6156314;23;20013;-70
2021/04/27 19:55:56;;;;;;;62.30;28.38;;;;;;;;;;6156146;23;20030;-69
2021/04/27 19:58:23;;;;;;;51.90;22.27;;;;;;;;;;6156204;23;20032;-73
2021/04/27 20:00:49;;;;;;;81.90;33.25;;;;;;;;;;6155912;23;20040;-72